createdAt,value
2023-12-30T00:02:11.079Z,11.47
2023-12-30T00:04:39.630Z,19.83
2023-12-30T00:07:08.059Z,10.73
2023-12-30T00:09:38.784Z,10.90
2023-12-30T00:12:08.055Z,12.07
2023-12-30T00:14:36.738Z,10.40
2023-12-30T00:17:06.704Z,8.57
2023-12-30T00:19:36.395Z,12.87
2023-12-30T00:22:05.215Z,7.93
2023-12-30T00:24:36.026Z,9.00
2023-12-30T00:27:04.528Z,12.00
2023-12-30T00:29:33.064Z,15.13
2023-12-30T00:32:03.853Z,12.93
2023-12-30T00:34:36.530Z,11.73
2023-12-30T00:37:05.355Z,14.00
2023-12-30T00:39:33.709Z,13.47
2023-12-30T00:42:02.182Z,13.37
2023-12-30T00:44:30.562Z,11.87
2023-12-30T00:46:59.054Z,10.60
2023-12-30T00:49:27.588Z,10.53
2023-12-30T00:51:57.426Z,8.63
2023-12-30T00:54:29.994Z,14.57
2023-12-30T00:57:03.602Z,12.50
2023-12-30T00:59:32.020Z,11.80
2023-12-30T01:02:00.965Z,9.40
2023-12-30T01:04:29.385Z,12.93
2023-12-30T01:06:59.459Z,11.57
2023-12-30T01:09:27.817Z,15.20
2023-12-30T01:11:56.310Z,9.27
2023-12-30T01:14:24.774Z,12.63
2023-12-30T01:16:53.350Z,10.63
2023-12-30T01:19:23.129Z,13.40
2023-12-30T01:21:51.551Z,12.00
2023-12-30T01:24:21.321Z,15.03
2023-12-30T01:26:49.782Z,12.40
2023-12-30T01:29:18.152Z,7.67
2023-12-30T01:31:46.651Z,8.73
2023-12-30T01:34:15.845Z,10.90
2023-12-30T01:36:44.253Z,12.53
2023-12-30T01:39:13.222Z,11.47
2023-12-30T01:41:44.168Z,12.87
2023-12-30T01:44:12.838Z,14.73
2023-12-30T01:46:41.319Z,16.80
2023-12-30T01:49:09.817Z,15.20
2023-12-30T01:51:42.244Z,10.80
2023-12-30T01:54:11.954Z,13.90
2023-12-30T01:56:41.905Z,9.27
2023-12-30T01:59:11.666Z,9.77
2023-12-30T02:01:40.414Z,11.47
2023-12-30T02:04:09.064Z,6.53
2023-12-30T02:06:37.726Z,6.03
2023-12-30T02:09:06.121Z,7.03
2023-12-30T02:11:35.445Z,9.53
2023-12-30T02:14:05.499Z,10.13
2023-12-30T02:16:37.242Z,13.40
2023-12-30T02:19:05.747Z,18.60
2023-12-30T02:21:34.720Z,8.93
2023-12-30T02:24:04.718Z,17.00
2023-12-30T02:26:33.354Z,8.60
2023-12-30T02:29:01.730Z,10.07
2023-12-30T02:31:30.166Z,14.00
2023-12-30T02:33:58.620Z,17.20
2023-12-30T02:36:27.131Z,15.60
2023-12-30T02:38:55.464Z,16.50
2023-12-30T02:41:25.355Z,18.27
2023-12-30T02:44:01.732Z,15.13
2023-12-30T02:46:30.416Z,15.73
2023-12-30T02:49:04.011Z,9.03
2023-12-30T02:51:32.725Z,20.00
2023-12-30T02:54:01.696Z,12.47
2023-12-30T02:56:31.431Z,18.30
2023-12-30T02:59:01.888Z,13.43
2023-12-30T03:01:32.279Z,18.80
2023-12-30T03:04:02.986Z,12.97
2023-12-30T03:06:32.110Z,22.20
2023-12-30T03:09:00.567Z,16.40
2023-12-30T03:11:30.544Z,8.47
2023-12-30T03:13:58.992Z,13.90
2023-12-30T03:16:27.499Z,11.90
2023-12-30T03:18:56.634Z,11.30
2023-12-30T03:21:26.246Z,16.43
2023-12-30T03:23:54.720Z,14.83
2023-12-30T03:26:24.009Z,10.77
2023-12-30T03:28:53.984Z,12.90
2023-12-30T03:31:24.642Z,12.23
2023-12-30T03:33:53.735Z,17.97
2023-12-30T03:36:22.808Z,16.30
2023-12-30T03:38:51.938Z,12.80
2023-12-30T03:41:20.652Z,14.60
2023-12-30T03:43:49.653Z,20.20
2023-12-30T03:46:19.762Z,12.00
2023-12-30T03:48:48.461Z,15.07
2023-12-30T03:51:17.022Z,13.73
2023-12-30T03:53:45.564Z,28.13
2023-12-30T03:56:14.642Z,26.47
2023-12-30T03:58:43.172Z,13.93
2023-12-30T04:01:11.616Z,22.93
2023-12-30T04:03:41.785Z,24.63
2023-12-30T04:06:18.663Z,13.47
2023-12-30T04:08:47.128Z,18.70
2023-12-30T04:11:15.557Z,22.63
2023-12-30T04:13:44.179Z,16.23
2023-12-30T04:16:12.824Z,16.20
2023-12-30T04:18:42.868Z,17.07
2023-12-30T04:21:11.704Z,20.27
2023-12-30T04:23:40.225Z,12.87
2023-12-30T04:26:08.764Z,14.00
2023-12-30T04:28:37.251Z,13.13
2023-12-30T04:31:06.331Z,17.13
2023-12-30T04:33:35.024Z,13.23
2023-12-30T04:36:05.409Z,15.30
2023-12-30T04:38:33.779Z,15.37
2023-12-30T04:41:02.306Z,15.13
2023-12-30T04:43:32.882Z,15.60
2023-12-30T04:46:01.377Z,13.67
2023-12-30T04:48:29.959Z,13.90
2023-12-30T04:50:58.652Z,15.83
2023-12-30T04:53:28.852Z,15.10
2023-12-30T04:55:57.359Z,16.13
2023-12-30T04:58:25.939Z,19.63
2023-12-30T05:00:54.541Z,18.73
2023-12-30T05:03:23.361Z,27.10
2023-12-30T05:05:52.854Z,19.60
2023-12-30T05:08:21.559Z,14.13
2023-12-30T05:10:51.483Z,9.90
2023-12-30T05:13:20.096Z,12.90
2023-12-30T05:15:49.743Z,17.70
2023-12-30T05:18:18.518Z,19.10
2023-12-30T05:20:46.923Z,17.50
2023-12-30T05:23:15.947Z,17.97
2023-12-30T05:25:44.488Z,14.93
2023-12-30T05:28:14.407Z,24.13
2023-12-30T05:30:43.116Z,16.37
2023-12-30T05:33:11.599Z,17.77
2023-12-30T05:35:42.141Z,18.80
2023-12-30T05:38:13.501Z,11.80
2023-12-30T05:40:42.034Z,18.83
2023-12-30T05:43:10.469Z,19.73
2023-12-30T05:45:40.300Z,20.37
2023-12-30T05:48:09.180Z,21.00
2023-12-30T05:50:37.776Z,14.27
2023-12-30T05:53:06.150Z,16.70
2023-12-30T05:55:34.605Z,13.50
2023-12-30T05:58:03.002Z,19.33
2023-12-30T06:00:31.538Z,22.10
2023-12-30T06:03:01.578Z,21.57
2023-12-30T06:05:30.412Z,13.37
2023-12-30T06:07:58.953Z,17.40
2023-12-30T06:10:27.330Z,11.53
2023-12-30T06:12:55.729Z,13.67
2023-12-30T06:15:24.496Z,20.77
2023-12-30T06:17:53.101Z,19.57
2023-12-30T06:20:24.379Z,26.00
2023-12-30T06:22:52.863Z,16.67
2023-12-30T06:25:21.347Z,21.50
2023-12-30T06:27:49.743Z,12.33
2023-12-30T06:30:18.485Z,16.53
2023-12-30T06:32:46.989Z,13.77
2023-12-30T06:35:15.684Z,20.07
2023-12-30T06:37:45.382Z,13.03
2023-12-30T06:40:14.038Z,20.00
2023-12-30T06:42:46.146Z,22.77
2023-12-30T06:45:14.633Z,16.13
2023-12-30T06:47:44.750Z,21.30
2023-12-30T06:50:14.443Z,19.60
2023-12-30T06:52:44.224Z,21.07
2023-12-30T06:55:20.786Z,15.60
2023-12-30T06:57:55.952Z,21.57
2023-12-30T07:00:24.380Z,20.23
2023-12-30T07:02:52.871Z,18.43
2023-12-30T07:05:21.321Z,16.33
2023-12-30T07:07:51.354Z,15.33
2023-12-30T07:10:20.252Z,20.47
2023-12-30T07:12:48.718Z,12.90
2023-12-30T07:15:17.449Z,12.73
2023-12-30T07:17:47.071Z,19.20
2023-12-30T07:20:15.988Z,26.20
2023-12-30T07:22:45.098Z,21.57
2023-12-30T07:25:15.564Z,25.10
2023-12-30T07:27:43.968Z,16.03
2023-12-30T07:30:13.355Z,16.20
2023-12-30T07:32:42.205Z,26.00
2023-12-30T07:35:10.997Z,18.50
2023-12-30T07:37:39.687Z,22.93
2023-12-30T07:40:10.167Z,31.27
2023-12-30T07:42:40.108Z,29.80
2023-12-30T07:45:09.739Z,19.57
2023-12-30T07:47:38.693Z,20.20
2023-12-30T07:50:09.226Z,15.80
2023-12-30T07:52:37.788Z,19.90
2023-12-30T07:55:07.239Z,16.73
2023-12-30T07:57:35.713Z,30.33
2023-12-30T08:00:07.559Z,22.00
2023-12-30T08:02:42.229Z,19.73
2023-12-30T08:05:10.817Z,15.10
2023-12-30T08:07:39.369Z,26.03
2023-12-30T08:10:09.300Z,14.97
2023-12-30T08:12:37.889Z,19.20
2023-12-30T08:15:12.041Z,25.23
2023-12-30T08:17:40.736Z,19.70
2023-12-30T08:20:11.298Z,21.70
2023-12-30T08:22:40.470Z,18.37
2023-12-30T08:25:10.138Z,20.33
2023-12-30T08:27:38.592Z,16.83
2023-12-30T08:30:10.489Z,19.77
2023-12-30T08:32:38.959Z,18.30
2023-12-30T08:35:09.184Z,20.00
2023-12-30T08:37:38.261Z,22.17
2023-12-30T08:40:12.636Z,13.17
2023-12-30T08:42:45.359Z,18.50
2023-12-30T08:45:19.656Z,18.47
2023-12-30T08:47:48.566Z,22.47
2023-12-30T08:50:17.262Z,19.47
2023-12-30T08:52:46.053Z,16.40
2023-12-30T08:55:14.491Z,19.17
2023-12-30T08:57:44.206Z,12.60
2023-12-30T09:00:17.715Z,11.67
2023-12-30T09:02:48.982Z,21.30
2023-12-30T09:05:20.095Z,17.00
2023-12-30T09:07:49.532Z,19.40
2023-12-30T09:10:21.728Z,22.83
2023-12-30T09:12:50.306Z,21.13
2023-12-30T09:15:20.452Z,16.70
2023-12-30T09:17:49.005Z,22.07
2023-12-30T09:20:17.830Z,15.10
2023-12-30T09:22:46.541Z,16.23
2023-12-30T09:25:15.246Z,16.13
2023-12-30T09:27:43.962Z,18.43
2023-12-30T09:30:13.161Z,25.30
2023-12-30T09:32:42.952Z,20.53
2023-12-30T09:35:11.866Z,14.70
2023-12-30T09:37:40.455Z,13.63
2023-12-30T09:40:11.332Z,24.43
2023-12-30T09:42:40.865Z,17.07
2023-12-30T09:45:11.700Z,24.63
2023-12-30T09:47:41.069Z,10.00
2023-12-30T09:50:11.695Z,12.70
2023-12-30T09:52:40.226Z,15.93
2023-12-30T09:55:09.669Z,15.40
2023-12-30T09:57:38.593Z,19.40
2023-12-30T10:00:09.880Z,18.97
2023-12-30T10:02:39.498Z,17.00
2023-12-30T10:05:10.922Z,19.83
2023-12-30T10:07:39.539Z,18.57
2023-12-30T10:10:10.132Z,24.03
2023-12-30T10:12:39.245Z,15.80
2023-12-30T10:15:08.645Z,22.50
2023-12-30T10:17:38.732Z,15.13
2023-12-30T10:20:11.836Z,20.43
2023-12-30T10:22:41.037Z,15.40
2023-12-30T10:25:10.321Z,24.20
2023-12-30T10:27:40.341Z,21.70
2023-12-30T10:30:10.651Z,27.00
2023-12-30T10:32:39.275Z,21.83
2023-12-30T10:35:10.159Z,26.50
2023-12-30T10:37:38.708Z,22.23
2023-12-30T10:40:10.651Z,27.37
2023-12-30T10:42:39.622Z,28.03
2023-12-30T10:45:09.112Z,12.30
2023-12-30T10:47:42.779Z,15.93
2023-12-30T10:50:14.806Z,15.10
2023-12-30T10:52:52.924Z,22.30
2023-12-30T10:55:27.579Z,20.43
2023-12-30T10:58:05.965Z,24.30
2023-12-30T11:00:37.928Z,24.33
2023-12-30T11:03:07.026Z,20.70
2023-12-30T11:05:41.041Z,24.87
2023-12-30T11:08:10.509Z,28.90
2023-12-30T11:10:42.611Z,28.40
2023-12-30T11:13:11.837Z,18.70
2023-12-30T11:15:42.692Z,28.37
2023-12-30T11:18:15.164Z,24.30
2023-12-30T11:20:47.936Z,20.87
2023-12-30T11:23:17.411Z,29.20
2023-12-30T11:25:48.917Z,22.30
2023-12-30T11:28:20.271Z,31.83
2023-12-30T11:31:01.340Z,28.13
2023-12-30T11:33:30.270Z,20.90
2023-12-30T11:36:02.282Z,24.20
2023-12-30T11:38:32.980Z,26.07
2023-12-30T11:41:03.958Z,36.47
2023-12-30T11:43:32.862Z,27.93
2023-12-30T11:46:04.498Z,26.57
2023-12-30T11:48:33.040Z,29.70
2023-12-30T11:51:03.052Z,33.77
2023-12-30T11:53:36.248Z,23.90
2023-12-30T11:56:04.956Z,30.90
2023-12-30T11:58:33.727Z,24.87
2023-12-30T12:01:02.683Z,25.77
2023-12-30T12:03:31.223Z,27.07
2023-12-30T12:06:00.258Z,22.23
2023-12-30T12:08:31.196Z,17.73
2023-12-30T12:10:59.782Z,23.10
2023-12-30T12:13:31.349Z,25.97
2023-12-30T12:15:59.833Z,15.47
2023-12-30T12:18:28.635Z,22.13
2023-12-30T12:20:57.498Z,14.23
2023-12-30T12:23:27.058Z,20.00
2023-12-30T12:25:56.820Z,18.23
2023-12-30T12:28:25.366Z,23.67
2023-12-30T12:30:55.182Z,12.30
2023-12-30T12:33:23.614Z,21.57
2023-12-30T12:35:52.278Z,13.03
2023-12-30T12:38:20.828Z,17.43
2023-12-30T12:40:49.466Z,17.33
2023-12-30T12:43:19.763Z,16.23
2023-12-30T12:45:49.144Z,14.17
2023-12-30T12:48:17.700Z,14.47
2023-12-30T12:50:46.264Z,19.07
2023-12-30T12:53:14.789Z,12.87
2023-12-30T12:55:43.336Z,13.50
2023-12-30T12:58:11.856Z,13.77
2023-12-30T13:00:41.608Z,14.00
2023-12-30T13:03:10.508Z,17.23
2023-12-30T13:05:39.360Z,14.73
2023-12-30T13:08:09.864Z,15.43
2023-12-30T13:10:41.360Z,15.80
2023-12-30T13:13:10.115Z,21.23
2023-12-30T13:15:39.807Z,18.47
2023-12-30T13:18:14.372Z,11.70
2023-12-30T13:20:46.373Z,13.23
2023-12-30T13:23:16.021Z,14.30
2023-12-30T13:25:45.282Z,14.00
2023-12-30T13:28:15.252Z,12.30
2023-12-30T13:30:44.737Z,14.83
2023-12-30T13:33:17.923Z,18.03
2023-12-30T13:35:46.679Z,12.40
2023-12-30T13:38:15.903Z,13.00
2023-12-30T13:40:45.607Z,9.73
2023-12-30T13:43:14.846Z,14.17
2023-12-30T13:45:46.633Z,10.07
2023-12-30T13:48:42.389Z,10.40
2023-12-30T13:51:13.013Z,9.77
2023-12-30T13:53:41.716Z,13.03
2023-12-30T13:56:18.447Z,13.10
2023-12-30T13:58:48.761Z,11.50
2023-12-30T14:01:18.897Z,15.00
2023-12-30T14:03:49.252Z,13.00
2023-12-30T14:06:22.545Z,12.83
2023-12-30T14:08:50.926Z,9.27
2023-12-30T14:11:35.550Z,11.60
2023-12-30T14:14:10.320Z,10.90
2023-12-30T14:16:40.077Z,12.00
2023-12-30T14:19:10.479Z,6.57
2023-12-30T14:21:40.256Z,11.07
2023-12-30T14:24:12.739Z,10.77
2023-12-30T14:26:41.208Z,8.57
2023-12-30T14:29:10.147Z,8.33
2023-12-30T14:31:38.971Z,6.53
2023-12-30T14:34:07.468Z,8.97
2023-12-30T14:36:37.281Z,6.13
2023-12-30T14:39:09.527Z,9.17
2023-12-30T14:41:39.477Z,9.70
2023-12-30T14:44:07.810Z,7.53
2023-12-30T14:46:36.369Z,7.37
2023-12-30T14:49:04.963Z,10.10
2023-12-30T14:51:33.967Z,7.10
2023-12-30T14:54:05.021Z,8.00
2023-12-30T14:56:37.506Z,8.87
2023-12-30T14:59:06.046Z,7.27
2023-12-30T15:01:34.667Z,5.33
2023-12-30T15:04:04.693Z,11.10
2023-12-30T15:06:35.771Z,8.77
2023-12-30T15:09:10.086Z,9.93
2023-12-30T15:11:38.866Z,13.20
2023-12-30T15:14:07.618Z,13.20
2023-12-30T15:16:36.128Z,9.77
2023-12-30T15:19:04.615Z,8.60
2023-12-30T15:21:35.401Z,7.80
2023-12-30T15:24:06.003Z,9.33
2023-12-30T15:26:34.486Z,11.33
2023-12-30T15:29:03.071Z,11.37
2023-12-30T15:31:32.546Z,14.27
2023-12-30T15:34:01.342Z,8.50
2023-12-30T15:36:30.494Z,9.63
2023-12-30T15:38:59.718Z,8.57
2023-12-30T15:41:29.978Z,11.20
2023-12-30T15:43:58.539Z,9.00
2023-12-30T15:46:29.177Z,8.33
2023-12-30T15:48:57.715Z,9.67
2023-12-30T15:51:26.228Z,11.87
2023-12-30T15:53:54.692Z,9.80
2023-12-30T15:56:23.029Z,7.97
2023-12-30T15:58:53.392Z,8.63
2023-12-30T16:01:21.864Z,9.07
2023-12-30T16:03:50.315Z,12.50
2023-12-30T16:06:18.681Z,7.40
2023-12-30T16:08:47.359Z,6.50
2023-12-30T16:11:16.334Z,8.60
2023-12-30T16:13:44.731Z,6.83
2023-12-30T16:16:14.617Z,6.90
2023-12-30T16:18:43.178Z,10.60
2023-12-30T16:21:13.510Z,13.27
2023-12-30T16:23:41.979Z,8.30
2023-12-30T16:26:11.147Z,7.70
2023-12-30T16:28:40.551Z,10.00
2023-12-30T16:31:09.035Z,10.20
2023-12-30T16:33:42.228Z,10.30
2023-12-30T16:36:12.126Z,6.73
2023-12-30T16:38:40.805Z,10.00
2023-12-30T16:41:09.174Z,9.43
2023-12-30T16:43:38.485Z,10.37
2023-12-30T16:46:07.726Z,9.40
2023-12-30T16:48:36.145Z,5.97
2023-12-30T16:51:06.451Z,6.53
2023-12-30T16:53:34.845Z,10.00
2023-12-30T16:56:03.536Z,7.53
2023-12-30T16:58:32.426Z,15.93
2023-12-30T17:01:01.554Z,12.20
2023-12-30T17:03:30.197Z,9.00
2023-12-30T17:05:58.669Z,7.50
2023-12-30T17:08:29.768Z,7.50
2023-12-30T17:10:58.155Z,11.77
2023-12-30T17:13:34.914Z,7.27
2023-12-30T17:16:09.340Z,6.63
2023-12-30T17:18:38.468Z,5.70
2023-12-30T17:21:07.004Z,6.63
2023-12-30T17:23:36.837Z,4.23
2023-12-30T17:26:05.686Z,7.77
2023-12-30T17:28:34.977Z,11.97
2023-12-30T17:31:06.822Z,8.40
2023-12-30T17:33:35.358Z,9.53
2023-12-30T17:36:03.981Z,4.10
2023-12-30T17:38:32.429Z,6.93
2023-12-30T17:41:02.226Z,8.03
2023-12-30T17:43:30.827Z,6.30
2023-12-30T17:45:59.191Z,7.63
2023-12-30T17:48:28.228Z,4.63
2023-12-30T17:50:56.846Z,7.87
2023-12-30T17:53:25.272Z,3.50
2023-12-30T17:55:56.641Z,9.03
2023-12-30T17:58:26.467Z,7.83
2023-12-30T18:00:54.914Z,9.00
2023-12-30T18:03:23.424Z,5.97
2023-12-30T18:05:50.866Z,8.17
2023-12-30T18:08:19.596Z,4.60
2023-12-30T18:10:48.164Z,4.50
2023-12-30T18:13:16.863Z,5.20
2023-12-30T18:15:47.073Z,4.90
2023-12-30T18:18:15.518Z,9.13
2023-12-30T18:20:44.144Z,5.37
2023-12-30T18:23:12.532Z,9.63
2023-12-30T18:25:40.864Z,6.47
2023-12-30T18:28:09.319Z,7.90
2023-12-30T18:30:38.269Z,6.37
2023-12-30T18:33:10.052Z,4.93
2023-12-30T18:35:39.803Z,4.90
2023-12-30T18:38:08.199Z,6.70
2023-12-30T18:40:38.015Z,6.20
2023-12-30T18:43:06.764Z,6.13
2023-12-30T18:45:35.207Z,7.70
2023-12-30T18:48:04.266Z,7.20
2023-12-30T18:50:34.661Z,5.60
2023-12-30T18:53:03.715Z,6.57
2023-12-30T18:55:33.929Z,5.90
2023-12-30T18:58:02.510Z,4.90
2023-12-30T19:00:31.076Z,6.17
2023-12-30T19:02:59.637Z,4.60
2023-12-30T19:05:28.128Z,3.43
2023-12-30T19:07:58.095Z,8.47
2023-12-30T19:10:29.904Z,4.57
2023-12-30T19:12:58.490Z,7.20
2023-12-30T19:15:27.204Z,9.10
2023-12-30T19:17:55.802Z,6.87
2023-12-30T19:20:24.294Z,5.23
2023-12-30T19:22:53.075Z,7.80
2023-12-30T19:25:22.939Z,7.60
2023-12-30T19:27:52.739Z,4.67
2023-12-30T19:30:21.193Z,7.10
2023-12-30T19:32:49.692Z,5.33
2023-12-30T19:35:20.426Z,8.27
2023-12-30T19:37:49.262Z,4.50
2023-12-30T19:40:18.062Z,7.97
2023-12-30T19:42:48.126Z,8.57
2023-12-30T19:45:17.044Z,7.20
2023-12-30T19:47:45.822Z,7.87
2023-12-30T19:50:14.430Z,4.00
2023-12-30T19:52:42.993Z,4.93
2023-12-30T19:55:11.709Z,5.23
2023-12-30T19:57:40.169Z,5.63
2023-12-30T20:00:14.452Z,6.30
2023-12-30T20:02:43.550Z,6.97
2023-12-30T20:05:14.311Z,6.50
2023-12-30T20:07:43.074Z,4.80
2023-12-30T20:10:12.631Z,9.17
2023-12-30T20:12:41.350Z,7.37
2023-12-30T20:15:11.319Z,10.80
2023-12-30T20:17:39.947Z,4.90
2023-12-30T20:20:11.688Z,8.57
2023-12-30T20:22:40.199Z,5.27
2023-12-30T20:25:09.589Z,6.27
2023-12-30T20:27:38.385Z,4.47
2023-12-30T20:30:08.631Z,10.03
2023-12-30T20:32:38.765Z,7.97
2023-12-30T20:35:08.130Z,3.70
2023-12-30T20:37:36.525Z,7.00
2023-12-30T20:40:07.182Z,4.13
2023-12-30T20:42:36.326Z,5.83
2023-12-30T20:45:06.382Z,4.33
2023-12-30T20:47:34.949Z,4.97
2023-12-30T20:50:05.815Z,5.40
2023-12-30T20:52:35.477Z,4.30
2023-12-30T20:55:05.025Z,4.60
2023-12-30T20:57:33.968Z,5.27
2023-12-30T21:00:02.437Z,5.07
2023-12-30T21:02:31.111Z,4.23
2023-12-30T21:04:59.471Z,4.80
2023-12-30T21:07:29.416Z,6.43
2023-12-30T21:09:57.884Z,5.60
2023-12-30T21:12:26.366Z,4.13
2023-12-30T21:14:54.776Z,5.80
2023-12-30T21:17:23.128Z,3.63
2023-12-30T21:19:51.865Z,7.03
2023-12-30T21:22:20.482Z,5.80
2023-12-30T21:24:50.256Z,4.40
2023-12-30T21:27:18.814Z,6.07
2023-12-30T21:29:47.167Z,4.20
2023-12-30T21:32:15.634Z,4.67
2023-12-30T21:34:44.394Z,5.10
2023-12-30T21:37:13.751Z,4.53
2023-12-30T21:39:42.456Z,5.40
2023-12-30T21:42:12.199Z,6.40
2023-12-30T21:44:42.920Z,5.30
2023-12-30T21:47:11.311Z,7.17
2023-12-30T21:49:40.534Z,4.27
2023-12-30T21:52:09.996Z,7.67
2023-12-30T21:54:38.387Z,6.10
2023-12-30T21:57:06.984Z,3.87
2023-12-30T21:59:36.728Z,6.17
2023-12-30T22:02:05.405Z,7.43
2023-12-30T22:04:33.986Z,6.00
2023-12-30T22:07:02.294Z,4.63
2023-12-30T22:09:33.221Z,5.13
2023-12-30T22:12:01.661Z,6.07
2023-12-30T22:14:30.151Z,5.53
2023-12-30T22:17:00.083Z,5.63
2023-12-30T22:19:28.687Z,5.63
2023-12-30T22:21:57.066Z,4.60
2023-12-30T22:24:25.418Z,4.17
2023-12-30T22:26:56.558Z,5.63
2023-12-30T22:29:25.279Z,7.77
2023-12-30T22:31:54.027Z,3.47
2023-12-30T22:34:23.801Z,4.93
2023-12-30T22:36:53.056Z,5.90
2023-12-30T22:39:21.462Z,4.33
2023-12-30T22:41:49.835Z,4.37
2023-12-30T22:44:18.532Z,4.97
2023-12-30T22:46:47.437Z,4.17
2023-12-30T22:49:16.207Z,2.73
2023-12-30T22:51:49.588Z,4.50
2023-12-30T22:54:19.804Z,4.57
2023-12-30T22:56:48.191Z,5.50
2023-12-30T22:59:17.710Z,4.27
2023-12-30T23:01:46.330Z,4.60
2023-12-30T23:04:14.813Z,4.10
2023-12-30T23:06:44.268Z,3.37
2023-12-30T23:09:14.775Z,3.03
2023-12-30T23:11:43.386Z,4.90
2023-12-30T23:14:11.719Z,5.30
2023-12-30T23:16:41.294Z,3.47
2023-12-30T23:19:09.815Z,5.13
2023-12-30T23:21:38.452Z,4.53
2023-12-30T23:24:08.369Z,3.53
2023-12-30T23:26:38.381Z,3.87
2023-12-30T23:29:06.945Z,5.00
2023-12-30T23:31:38.811Z,3.17
2023-12-30T23:34:09.066Z,2.33
2023-12-30T23:36:37.819Z,7.03
2023-12-30T23:39:06.614Z,2.73
2023-12-30T23:41:35.308Z,4.07
2023-12-30T23:44:06.462Z,4.07
2023-12-30T23:46:35.161Z,4.40
2023-12-30T23:49:03.603Z,3.50
2023-12-30T23:51:31.931Z,4.47
2023-12-30T23:54:00.255Z,2.57
2023-12-30T23:56:29.326Z,2.83
2023-12-30T23:58:57.688Z,3.23
